Time;durP1;ratioP1;P1;durP2;ratioP2;P2;SDS_P1;SDS_P2;PMS_P1;PMS_P2;Temp;Humidity;BMP_temperature;BMP_pressure;BME280_temperature;BME280_humidity;BME280_pressure;Samples;Min_cycle;Max_cycle;Signal;HPM_P1;HPM_P2
2021/08/26 00:00:54;;;;;;;31.43;5.70;;;;;;;13.58;100.00;100747.31;7400087;19;20410;-59
2021/08/26 00:06:08;;;;;;;38.87;6.47;;;;;;;13.64;100.00;100744.91;7400940;19;20443;-57
2021/08/26 00:08:40;;;;;;;35.70;5.77;;;;;;;13.70;100.00;100745.94;7397553;19;20445;-58
2021/08/26 00:11:10;;;;;;;40.50;5.20;;;;;;;13.53;100.00;100745.44;7401240;19;20392;-58
2021/08/26 00:13:39;;;;;;;30.23;5.47;;;;;;;13.53;100.00;100740.25;7374869;19;20462;-58
2021/08/26 00:16:09;;;;;;;29.73;6.07;;;;;;;13.57;100.00;100737.81;7400393;19;20396;-58
2021/08/26 00:18:39;;;;;;;29.77;5.63;;;;;;;13.52;100.00;100741.09;7397799;19;20430;-58
2021/08/26 00:21:09;;;;;;;25.77;6.23;;;;;;;13.55;100.00;100739.47;7399368;19;20455;-57
2021/08/26 00:23:41;;;;;;;37.63;6.00;;;;;;;13.58;100.00;100742.13;7397476;19;20681;-58
2021/08/26 00:26:11;;;;;;;34.67;6.43;;;;;;;13.63;100.00;100740.56;7400251;19;20398;-57
2021/08/26 00:28:40;;;;;;;32.77;5.93;;;;;;;13.55;100.00;100729.09;7372268;19;20482;-58
2021/08/26 00:31:10;;;;;;;28.87;5.47;;;;;;;13.58;100.00;100729.19;7400454;19;20402;-58
2021/08/26 00:33:39;;;;;;;32.80;5.93;;;;;;;13.44;100.00;100736.50;7374355;19;20395;-55
2021/08/26 00:36:09;;;;;;;34.00;6.00;;;;;;;13.45;100.00;100727.03;7399746;19;20391;-57
2021/08/26 00:38:41;;;;;;;34.43;5.77;;;;;;;13.47;100.00;100730.56;7395211;19;20433;-55
2021/08/26 00:41:10;;;;;;;28.63;5.07;;;;;;;13.51;100.00;100729.84;7400082;19;20406;-58
2021/08/26 00:43:40;;;;;;;41.47;7.17;;;;;;;13.56;100.00;100730.88;7374110;19;20399;-58
2021/08/26 00:46:12;;;;;;;29.53;6.40;;;;;;;13.46;100.00;100723.63;7399449;19;20926;-58
2021/08/26 00:48:42;;;;;;;30.63;5.30;;;;;;;13.49;100.00;100718.56;7396255;19;20423;-58
2021/08/26 00:51:12;;;;;;;39.43;6.17;;;;;;;13.53;100.00;100725.56;7399846;19;20404;-57
2021/08/26 00:53:44;;;;;;;31.90;6.60;;;;;;;13.57;100.00;100727.44;7374068;19;20395;-56
2021/08/26 00:56:15;;;;;;;32.97;6.23;;;;;;;13.55;100.00;100723.94;7398218;19;20451;-58
2021/08/26 00:58:46;;;;;;;39.03;6.20;;;;;;;13.53;100.00;100710.03;7395606;19;20430;-56
2021/08/26 01:01:16;;;;;;;30.63;6.00;;;;;;;13.55;100.00;100718.75;7399658;19;20898;-58
2021/08/26 01:03:49;;;;;;;32.07;7.03;;;;;;;13.51;100.00;100716.88;7393806;19;20403;-58
2021/08/26 01:06:23;;;;;;;31.53;6.00;;;;;;;13.52;100.00;100722.97;7399947;19;20463;-57
2021/08/26 01:09:05;;;;;;;23.63;5.53;;;;;;;13.49;100.00;100721.16;7398780;19;20725;-58
2021/08/26 01:11:35;;;;;;;31.97;6.20;;;;;;;13.53;100.00;100717.78;7392779;19;20656;-55
2021/08/26 01:14:06;;;;;;;38.80;5.50;;;;;;;13.47;100.00;100721.09;7397753;19;20417;-57
2021/08/26 01:16:38;;;;;;;33.37;7.10;;;;;;;13.43;100.00;100716.63;7391569;19;20404;-58
2021/08/26 01:19:08;;;;;;;34.97;6.77;;;;;;;13.48;100.00;100721.97;7399043;19;20391;-57
2021/08/26 01:21:37;;;;;;;27.00;5.40;;;;;;;13.41;100.00;100717.41;7392629;19;20419;-57
2021/08/26 01:24:11;;;;;;;38.13;6.20;;;;;;;13.48;100.00;100716.78;7398568;19;20417;-58
2021/08/26 01:26:45;;;;;;;43.03;7.33;;;;;;;13.37;100.00;100719.91;7392072;19;20387;-58
2021/08/26 01:29:16;;;;;;;30.10;6.80;;;;;;;13.42;100.00;100719.16;7398543;19;20396;-58
2021/08/26 01:31:47;;;;;;;30.77;6.40;;;;;;;13.49;100.00;100716.84;7391572;19;20471;-59
2021/08/26 01:34:17;;;;;;;37.03;6.67;;;;;;;13.48;100.00;100711.59;7397207;19;20405;-57
2021/08/26 01:36:47;;;;;;;37.53;6.23;;;;;;;13.53;100.00;100715.19;7391387;19;20463;-56
2021/08/26 01:39:18;;;;;;;37.00;6.93;;;;;;;13.39;100.00;100713.91;7398798;19;20846;-58
2021/08/26 01:41:52;;;;;;;26.13;6.83;;;;;;;13.48;100.00;100727.16;7371174;19;20451;-58
2021/08/26 01:44:22;;;;;;;36.87;7.63;;;;;;;13.45;100.00;100727.94;7397545;19;20383;-56
2021/08/26 01:46:53;;;;;;;45.40;7.53;;;;;;;13.41;100.00;100726.06;7391181;19;20747;-57
2021/08/26 01:49:22;;;;;;;36.10;7.50;;;;;;;13.50;100.00;100734.13;7398226;19;20447;-57
2021/08/26 01:51:52;;;;;;;42.13;6.13;;;;;;;13.50;100.00;100730.69;7390898;19;20415;-58
2021/08/26 01:54:21;;;;;;;33.20;6.60;;;;;;;13.50;100.00;100730.69;7396930;19;20867;-56
2021/08/26 01:56:53;;;;;;;42.70;8.10;;;;;;;13.49;100.00;100728.94;7390498;19;20423;-55
2021/08/26 01:59:23;;;;;;;33.67;7.10;;;;;;;13.50;100.00;100730.69;7398701;19;20415;-57
2021/08/26 02:01:52;;;;;;;38.10;6.63;;;;;;;13.47;100.00;100725.38;7390572;19;20411;-55
2021/08/26 02:04:22;;;;;;;33.07;6.80;;;;;;;13.52;100.00;100723.81;7397989;19;20405;-58
2021/08/26 02:06:51;;;;;;;25.70;5.70;;;;;;;13.43;100.00;100720.94;7390258;19;20419;-58
2021/08/26 02:09:21;;;;;;;31.60;6.80;;;;;;;13.32;100.00;100718.91;7397768;19;21184;-56
2021/08/26 02:11:53;;;;;;;34.67;6.33;;;;;;;13.39;100.00;100727.75;7388674;19;20455;-57
2021/08/26 02:14:22;;;;;;;41.70;6.70;;;;;;;13.32;100.00;100721.50;7401520;19;20447;-56
2021/08/26 02:16:52;;;;;;;27.77;6.90;;;;;;;13.35;100.00;100713.78;7397768;19;20411;-57
2021/08/26 02:19:21;;;;;;;32.70;7.10;;;;;;;13.32;100.00;100711.13;7405188;19;20402;-59
2021/08/26 02:21:51;;;;;;;28.10;6.83;;;;;;;13.44;100.00;100718.38;7397294;19;20406;-56
2021/08/26 02:24:21;;;;;;;30.67;7.00;;;;;;;13.37;100.00;100716.44;7404878;19;20897;-57
2021/08/26 02:26:53;;;;;;;33.30;7.57;;;;;;;13.56;100.00;100715.31;7378610;19;20415;-56
2021/08/26 02:29:22;;;;;;;30.73;6.80;;;;;;;13.37;100.00;100714.75;7403645;19;20388;-58
2021/08/26 02:31:52;;;;;;;35.73;7.03;;;;;;;13.38;100.00;100715.59;7395404;19;20495;-58
2021/08/26 02:34:21;;;;;;;32.93;6.80;;;;;;;13.42;100.00;100726.94;7404444;19;20923;-58
2021/08/26 02:36:51;;;;;;;31.60;6.87;;;;;;;13.34;100.00;100724.13;7396868;19;20396;-56
2021/08/26 02:39:20;;;;;;;42.30;6.70;;;;;;;13.36;100.00;100731.13;7404337;19;20455;-58
2021/08/26 02:41:52;;;;;;;39.90;7.47;;;;;;;13.40;100.00;100724.31;7396766;19;20470;-58
2021/08/26 02:44:22;;;;;;;36.43;7.13;;;;;;;13.41;100.00;100725.19;7404151;19;20388;-58
2021/08/26 02:46:51;;;;;;;46.57;5.80;;;;;;;13.10;100.00;100710.50;7396552;19;20414;-57
2021/08/26 02:49:21;;;;;;;31.60;6.90;;;;;;;13.09;100.00;100718.22;7403856;19;20476;-57
2021/08/26 02:51:50;;;;;;;33.07;6.07;;;;;;;13.24;100.00;100722.97;7393943;19;20466;-58
2021/08/26 02:54:20;;;;;;;24.90;6.17;;;;;;;13.38;100.00;100731.16;7403748;19;20856;-57
2021/08/26 02:56:49;;;;;;;31.57;6.60;;;;;;;13.29;100.00;100718.81;7396372;19;20415;-55
2021/08/26 02:59:21;;;;;;;26.70;6.37;;;;;;;13.37;100.00;100724.22;7404041;19;20459;-57
2021/08/26 03:01:51;;;;;;;21.27;5.40;;;;;;;13.07;100.00;100714.66;7399554;19;20406;-58
2021/08/26 03:04:20;;;;;;;35.30;6.30;;;;;;;13.14;100.00;100718.34;7403348;19;20388;-56
2021/08/26 03:06:50;;;;;;;34.83;6.50;;;;;;;13.13;100.00;100720.03;7396028;19;20779;-58
2021/08/26 03:09:19;;;;;;;25.03;6.20;;;;;;;13.09;100.00;100715.63;7407341;19;20699;-57
2021/08/26 03:11:49;;;;;;;48.60;8.33;;;;;;;13.13;100.00;100709.69;7394028;19;20413;-58
2021/08/26 03:14:21;;;;;;;32.70;7.47;;;;;;;13.21;100.00;100717.69;7403018;19;20396;-56
2021/08/26 03:16:50;;;;;;;35.33;6.70;;;;;;;13.12;100.00;100720.00;7395833;19;20480;-57
2021/08/26 03:19:20;;;;;;;40.57;6.93;;;;;;;12.92;100.00;100710.78;7403188;19;20734;-57
2021/08/26 03:21:49;;;;;;;36.63;7.13;;;;;;;13.23;100.00;100716.03;7374938;19;20395;-58
2021/08/26 03:24:19;;;;;;;26.93;6.60;;;;;;;13.06;100.00;100708.63;7401613;19;20465;-59
2021/08/26 03:26:48;;;;;;;37.07;6.47;;;;;;;12.88;100.00;100708.94;7393947;19;20421;-59
2021/08/26 03:29:20;;;;;;;32.60;6.93;;;;;;;12.92;100.00;100720.28;7402449;19;20391;-58
2021/08/26 03:31:50;;;;;;;31.73;7.17;;;;;;;12.96;100.00;100735.06;7393338;19;20459;-58
2021/08/26 03:34:19;;;;;;;24.30;6.20;;;;;;;12.95;100.00;100717.78;7402431;19;20661;-57
2021/08/26 03:36:49;;;;;;;30.87;6.97;;;;;;;12.90;100.00;100716.75;7398140;19;20463;-57
2021/08/26 03:39:19;;;;;;;27.43;7.10;;;;;;;12.92;100.00;100717.69;7402537;19;20463;-56
2021/08/26 03:41:48;;;;;;;40.83;7.27;;;;;;;12.88;100.00;100714.13;7370173;19;20410;-57
2021/08/26 03:44:20;;;;;;;39.27;7.60;;;;;;;12.99;100.00;100722.22;7400811;19;20846;-57
2021/08/26 03:46:50;;;;;;;33.73;6.53;;;;;;;12.92;100.00;100721.13;7397949;19;20455;-58
2021/08/26 03:49:19;;;;;;;26.33;6.20;;;;;;;12.92;100.00;100715.09;7400558;19;20402;-57
2021/08/26 03:51:49;;;;;;;33.27;6.73;;;;;;;12.76;100.00;100701.66;7397228;19;20491;-58
2021/08/26 03:54:18;;;;;;;28.57;6.50;;;;;;;12.82;100.00;100716.53;7401625;19;20715;-58
2021/08/26 03:56:48;;;;;;;22.07;5.80;;;;;;;12.77;100.00;100706.00;7397883;19;20428;-58
2021/08/26 03:59:20;;;;;;;31.40;5.80;;;;;;;12.83;100.00;100705.31;7402090;19;20477;-58
2021/08/26 04:01:50;;;;;;;22.50;7.00;;;;;;;12.79;100.00;100701.75;7397603;19;20471;-57
2021/08/26 04:04:20;;;;;;;32.90;6.60;;;;;;;12.85;100.00;100702.75;7401432;19;20417;-57
2021/08/26 04:06:49;;;;;;;28.57;6.93;;;;;;;12.79;100.00;100709.53;7392445;19;20415;-57
2021/08/26 04:09:19;;;;;;;29.03;5.73;;;;;;;12.70;100.00;100709.22;7401455;19;20444;-58
2021/08/26 04:11:48;;;;;;;31.57;7.53;;;;;;;12.79;100.00;100713.81;7393770;19;20474;-58
2021/08/26 04:14:20;;;;;;;38.00;6.77;;;;;;;12.76;100.00;100719.78;7401023;19;20468;-57
2021/08/26 04:16:50;;;;;;;37.87;7.50;;;;;;;12.78;100.00;100712.06;7393674;19;20467;-57
2021/08/26 04:19:19;;;;;;;42.10;8.47;;;;;;;12.91;100.00;100721.09;7401122;19;20384;-58
2021/08/26 04:21:49;;;;;;;31.07;7.13;;;;;;;12.80;100.00;100720.75;7393218;19;20399;-56
2021/08/26 04:24:18;;;;;;;39.57;7.27;;;;;;;12.65;100.00;100716.84;7399735;19;20455;-57
2021/08/26 04:26:48;;;;;;;37.90;9.13;;;;;;;12.71;100.00;100715.28;7393000;19;20479;-56
2021/08/26 04:29:17;;;;;;;28.97;7.57;;;;;;;12.85;100.00;100713.13;7400846;19;20384;-58
2021/08/26 04:31:49;;;;;;;29.50;7.77;;;;;;;12.85;100.00;100715.72;7393943;19;20478;-54
2021/08/26 04:34:19;;;;;;;32.47;6.80;;;;;;;12.63;100.00;100704.69;7400431;19;20403;-55
2021/08/26 04:36:48;;;;;;;35.10;8.60;;;;;;;12.58;100.00;100706.22;7391654;19;20486;-58
2021/08/26 04:39:18;;;;;;;57.27;7.40;;;;;;;12.55;100.00;100710.50;7398989;19;20447;-58
2021/08/26 04:41:47;;;;;;;40.70;7.83;;;;;;;12.73;100.00;100713.63;7392524;19;20419;-57
2021/08/26 04:44:17;;;;;;;25.80;7.23;;;;;;;12.95;100.00;100715.19;7399840;19;20662;-57
2021/08/26 04:46:46;;;;;;;30.57;7.67;;;;;;;12.88;100.00;100706.34;7392885;19;20430;-57
2021/08/26 04:49:18;;;;;;;27.40;7.87;;;;;;;12.88;100.00;100711.53;7400105;19;20392;-59
2021/08/26 04:51:48;;;;;;;21.80;6.37;;;;;;;12.78;100.00;100705.16;7392712;19;20482;-58
2021/08/26 04:54:18;;;;;;;31.93;7.23;;;;;;;12.88;100.00;100703.78;7399563;19;20846;-59
2021/08/26 04:56:48;;;;;;;33.60;6.70;;;;;;;13.10;100.00;100714.78;7390724;19;20924;-56
2021/08/26 04:59:17;;;;;;;24.70;6.43;;;;;;;12.88;100.00;100713.22;7399956;19;20708;-56
2021/08/26 05:01:47;;;;;;;23.03;6.70;;;;;;;12.81;100.00;100697.50;7392282;19;20486;-55
2021/08/26 05:04:23;;;;;;;25.10;6.67;;;;;;;12.87;100.00;100696.81;7402611;19;20424;-57
2021/08/26 05:06:53;;;;;;;27.80;7.97;;;;;;;12.83;100.00;100700.16;7387524;19;20414;-58
2021/08/26 05:09:22;;;;;;;28.60;8.13;;;;;;;12.81;100.00;100697.50;7399608;19;20408;-58
2021/08/26 05:12:00;;;;;;;33.27;7.07;;;;;;;12.92;100.00;100700.41;7391485;19;20486;-58
2021/08/26 05:14:31;;;;;;;38.97;7.60;;;;;;;12.86;100.00;100694.19;7398814;19;20383;-55
2021/08/26 05:17:00;;;;;;;43.10;7.10;;;;;;;12.82;100.00;100696.66;7392211;19;20487;-58
2021/08/26 05:19:33;;;;;;;28.30;7.07;;;;;;;13.05;100.00;100700.81;7399428;19;20469;-57
2021/08/26 05:22:03;;;;;;;25.40;6.70;;;;;;;13.23;100.00;100703.09;7370938;19;20859;-58
2021/08/26 05:24:32;;;;;;;39.23;6.90;;;;;;;13.21;100.00;100694.38;7398163;19;20390;-53
2021/08/26 05:27:02;;;;;;;34.00;7.77;;;;;;;13.27;100.00;100698.88;7383013;19;20426;-57
2021/08/26 05:29:32;;;;;;;31.77;7.20;;;;;;;13.26;100.00;100702.28;7397844;19;20852;-57
2021/08/26 05:32:02;;;;;;;38.17;13.80;;;;;;;13.44;100.00;100695.03;7379436;19;20483;-56
2021/08/26 05:34:34;;;;;;;43.63;11.40;;;;;;;13.47;100.00;100695.19;7398946;19;20721;-57
2021/08/26 05:37:03;;;;;;;27.50;8.20;;;;;;;13.45;100.00;100701.13;7390621;19;20486;-58
2021/08/26 05:39:33;;;;;;;30.20;9.47;;;;;;;13.52;100.00;100695.31;7398894;19;20447;-57
2021/08/26 05:42:02;;;;;;;32.43;6.50;;;;;;;13.61;100.00;100700.78;7391216;19;20411;-58
2021/08/26 05:44:32;;;;;;;26.37;6.60;;;;;;;13.59;100.00;100686.88;7398289;19;20741;-58
2021/08/26 05:47:01;;;;;;;20.53;5.33;;;;;;;13.68;100.00;100693.16;7390646;19;20432;-55
2021/08/26 05:49:33;;;;;;;27.77;7.23;;;;;;;13.54;100.00;100685.84;7401316;19;20463;-56
2021/08/26 05:52:03;;;;;;;27.60;6.80;;;;;;;13.60;100.00;100691.22;7398268;19;20482;-58
2021/08/26 05:54:32;;;;;;;32.43;7.40;;;;;;;13.67;100.00;100701.75;7405896;19;20392;-58
2021/08/26 05:57:03;;;;;;;37.13;12.23;;;;;;;13.77;100.00;100698.59;7383166;19;20419;-57
2021/08/26 05:59:32;;;;;;;26.40;6.33;;;;;;;13.90;100.00;100692.03;7406217;19;20719;-57
2021/08/26 06:02:03;;;;;;;29.90;7.07;;;;;;;13.79;100.00;100690.88;7398097;19;20490;-57
2021/08/26 06:04:35;;;;;;;20.90;6.10;;;;;;;13.66;100.00;100690.53;7405738;19;20380;-56
2021/08/26 06:07:05;;;;;;;23.10;5.27;;;;;;;13.56;100.00;100681.63;7396598;19;20426;-57
2021/08/26 06:09:35;;;;;;;16.73;5.10;;;;;;;13.64;100.00;100687.88;7405482;19;20898;-57
2021/08/26 06:12:04;;;;;;;22.83;5.47;;;;;;;13.67;100.00;100717.31;7379478;19;20533;-56
2021/08/26 06:14:34;;;;;;;20.87;5.30;;;;;;;13.67;100.00;100728.56;7405184;19;20392;-57
2021/08/26 06:17:04;;;;;;;19.77;5.30;;;;;;;13.66;100.00;100720.75;7397737;19;20918;-58
2021/08/26 06:19:36;;;;;;;22.53;5.03;;;;;;;13.63;100.00;100719.84;7405231;19;20823;-57
2021/08/26 06:22:05;;;;;;;19.23;4.87;;;;;;;13.73;100.00;100717.47;7396885;19;20502;-56
2021/08/26 06:24:35;;;;;;;20.87;5.30;;;;;;;13.72;100.00;100724.41;7404557;19;20788;-57
2021/08/26 06:27:05;;;;;;;20.67;5.40;;;;;;;13.56;100.00;100736.03;7396989;19;20428;-54
2021/08/26 06:29:34;;;;;;;21.60;5.43;;;;;;;13.57;100.00;100737.81;7404939;19;20395;-56
2021/08/26 06:32:04;;;;;;;19.67;5.13;;;;;;;13.45;100.00;100747.78;7396735;19;20449;-56
2021/08/26 06:34:36;;;;;;;15.20;4.80;;;;;;;13.44;100.00;100740.84;7404512;19;20465;-56
2021/08/26 06:37:06;;;;;;;22.57;6.03;;;;;;;13.56;100.00;100748.13;7396898;19;20683;-57
2021/08/26 06:39:35;;;;;;;22.10;5.60;;;;;;;13.43;100.00;100733.91;7404578;19;20455;-57
2021/08/26 06:42:05;;;;;;;31.97;7.27;;;;;;;13.45;100.00;100734.81;7395002;19;21144;-58
2021/08/26 06:44:35;;;;;;;24.53;5.67;;;;;;;13.53;100.00;100725.56;7404243;19;20455;-56
2021/08/26 06:47:05;;;;;;;26.03;6.30;;;;;;;13.52;100.00;100712.59;7396802;19;20857;-57
2021/08/26 06:49:37;;;;;;;22.33;5.63;;;;;;;13.51;100.00;100701.34;7404199;19;20402;-54
2021/08/26 06:52:07;;;;;;;23.73;4.83;;;;;;;13.76;100.00;100712.41;7395760;19;20721;-54
2021/08/26 06:54:37;;;;;;;23.20;6.53;;;;;;;13.64;100.00;100716.41;7404379;19;20392;-56
2021/08/26 06:57:07;;;;;;;23.77;5.30;;;;;;;13.91;100.00;100737.88;7396221;19;20753;-55
2021/08/26 06:59:36;;;;;;;21.57;4.80;;;;;;;13.96;100.00;100745.78;7403183;19;20392;-57
2021/08/26 07:02:06;;;;;;;22.77;5.80;;;;;;;13.88;100.00;100749.03;7396253;19;20418;-55
2021/08/26 07:04:38;;;;;;;24.60;5.10;;;;;;;14.00;100.00;100758.00;7404217;19;20384;-56
2021/08/26 07:07:09;;;;;;;35.87;6.10;;;;;;;14.04;100.00;100749.47;7396119;19;20419;-58
2021/08/26 07:09:39;;;;;;;22.87;5.30;;;;;;;14.03;100.00;100732.13;7403525;19;20396;-58
2021/08/26 07:12:09;;;;;;;15.17;3.77;;;;;;;14.22;100.00;100733.53;7395325;19;20471;-54
2021/08/26 07:14:38;;;;;;;19.07;4.20;;;;;;;14.08;100.00;100725.38;7403157;19;20408;-56
2021/08/26 07:17:08;;;;;;;14.07;4.43;;;;;;;14.13;100.00;100717.69;7395873;19;20483;-56
2021/08/26 07:19:40;;;;;;;17.00;4.30;;;;;;;14.19;100.00;100733.44;7402575;19;20384;-57
2021/08/26 07:22:09;;;;;;;20.60;4.27;;;;;;;14.28;100.00;100717.22;7395070;19;20419;-57
2021/08/26 07:24:39;;;;;;;18.33;4.37;;;;;;;14.26;100.00;100705.94;7402811;19;20878;-57
2021/08/26 07:27:09;;;;;;;15.23;4.60;;;;;;;14.35;100.00;100697.50;7394737;19;20419;-57
2021/08/26 07:29:38;;;;;;;21.80;4.10;;;;;;;14.49;100.00;100701.31;7402781;19;20723;-57
2021/08/26 07:32:08;;;;;;;16.97;4.07;;;;;;;14.43;100.00;100701.16;7395273;19;20474;-56
2021/08/26 07:34:40;;;;;;;12.73;4.07;;;;;;;14.49;100.00;100709.13;7400063;19;20451;-56
2021/08/26 07:37:10;;;;;;;16.03;3.37;;;;;;;14.45;100.00;100702.97;7394655;19;20873;-54
2021/08/26 07:39:39;;;;;;;14.67;2.40;;;;;;;14.61;100.00;100685.16;7400803;19;20459;-57
2021/08/26 07:42:09;;;;;;;13.63;3.10;;;;;;;14.62;100.00;100676.56;7391534;19;20415;-53
2021/08/26 07:44:39;;;;;;;17.00;3.57;;;;;;;14.86;100.00;100677.97;7402354;19;20459;-56
2021/08/26 07:47:08;;;;;;;11.20;2.60;;;;;;;14.75;100.00;100676.84;7394881;19;20521;-55
2021/08/26 07:49:40;;;;;;;10.33;2.93;;;;;;;14.84;100.00;100671.88;7402164;19;20463;-57
2021/08/26 07:52:10;;;;;;;10.70;2.87;;;;;;;14.76;100.00;100665.66;7394320;19;20411;-54
2021/08/26 07:54:39;;;;;;;10.20;2.73;;;;;;;14.77;100.00;100660.47;7399205;19;20821;-57
2021/08/26 07:57:09;;;;;;;10.13;2.80;;;;;;;14.77;100.00;100657.00;7391305;19;20767;-57
2021/08/26 07:59:38;;;;;;;9.50;2.67;;;;;;;14.95;100.00;100666.91;7401756;19;20384;-57
2021/08/26 08:02:08;;;;;;;18.87;5.00;;;;;;;14.92;100.00;100664.28;7393984;19;20456;-58
2021/08/26 08:04:40;;;;;;;12.53;5.67;;;;;;;15.07;100.00;100674.13;7402059;19;20424;-54
2021/08/26 08:07:10;;;;;;;13.90;4.80;;;;;;;15.21;100.00;100683.09;7393941;19;20492;-57
2021/08/26 08:09:39;;;;;;;10.10;3.67;;;;;;;15.14;100.00;100676.00;7401540;19;20747;-55
2021/08/26 08:12:09;;;;;;;9.70;2.90;;;;;;;15.03;100.00;100682.69;7393453;19;20423;-56
2021/08/26 08:14:42;;;;;;;12.23;2.30;;;;;;;14.97;100.00;100673.00;7397820;19;20467;-57
2021/08/26 08:17:12;;;;;;;9.70;3.90;;;;;;;15.17;100.00;100681.25;7394020;19;20415;-57
2021/08/26 08:19:44;;;;;;;10.40;3.57;;;;;;;15.19;100.00;100677.00;7401166;19;20905;-55
2021/08/26 08:22:13;;;;;;;5.10;2.07;;;;;;;15.20;100.00;100676.13;7393489;19;20475;-58
2021/08/26 08:24:43;;;;;;;7.40;2.40;;;;;;;15.14;100.00;100673.41;7401175;19;20447;-55
2021/08/26 08:27:12;;;;;;;11.23;2.60;;;;;;;15.19;100.00;100677.00;7393671;19;20440;-58
2021/08/26 08:29:42;;;;;;;9.00;1.50;;;;;;;15.07;100.00;100674.97;7400928;19;20723;-57
2021/08/26 08:32:11;;;;;;;21.97;4.67;;;;;;;15.21;100.00;100688.28;7371173;19;20398;-57
2021/08/26 08:34:43;;;;;;;10.57;3.80;;;;;;;15.14;100.00;100686.41;7397384;19;20693;-57
2021/08/26 08:37:13;;;;;;;19.50;4.40;;;;;;;15.19;100.00;100677.00;7393430;19;20873;-55
2021/08/26 08:39:45;;;;;;;10.60;2.10;;;;;;;15.06;100.00;100687.94;7400611;19;20707;-55
2021/08/26 08:42:14;;;;;;;10.13;2.40;;;;;;;15.17;100.00;100691.66;7390977;19;20407;-58
2021/08/26 08:44:44;;;;;;;7.37;2.13;;;;;;;15.16;100.00;100676.91;7400440;19;20384;-57
2021/08/26 08:47:14;;;;;;;7.10;2.60;;;;;;;15.28;100.00;100678.88;7393058;19;20430;-57
2021/08/26 08:49:50;;;;;;;12.23;1.83;;;;;;;15.18;100.00;100680.41;7399504;19;20395;-57
2021/08/26 08:52:20;;;;;;;5.60;1.70;;;;;;;15.33;100.00;100682.47;7393398;19;20482;-56
2021/08/26 08:54:52;;;;;;;8.07;1.57;;;;;;;15.46;100.00;100680.13;7398701;19;20388;-56
2021/08/26 08:57:21;;;;;;;11.73;1.87;;;;;;;15.33;100.00;100671.19;7392629;19;20909;-57
2021/08/26 08:59:51;;;;;;;5.97;1.53;;;;;;;15.42;100.00;100667.91;7399851;19;20657;-58
2021/08/26 09:02:20;;;;;;;9.83;1.53;;;;;;;15.46;100.00;100662.81;7371649;19;20458;-56
2021/08/26 09:05:01;;;;;;;11.07;2.00;;;;;;;15.41;100.00;100661.81;7398827;19;20396;-53
2021/08/26 09:07:32;;;;;;;11.03;5.00;;;;;;;15.64;100.00;100669.22;7392252;19;20436;-58
2021/08/26 09:10:02;;;;;;;9.53;2.60;;;;;;;15.63;100.00;100670.03;7398012;19;20380;-56
2021/08/26 09:12:49;;;;;;;6.13;1.77;;;;;;;15.75;100.00;100670.28;7371217;19;20391;-55
2021/08/26 09:15:20;;;;;;;6.40;1.83;;;;;;;15.67;100.00;100664.06;7397331;19;20447;-57
2021/08/26 09:17:50;;;;;;;3.70;1.33;;;;;;;15.88;100.00;100673.13;7392701;19;20422;-57
2021/08/26 09:20:23;;;;;;;11.20;2.17;;;;;;;15.92;100.00;100661.97;7399038;19;20390;-58
2021/08/26 09:22:52;;;;;;;11.03;2.10;;;;;;;16.18;100.00;100667.63;7391461;19;20490;-57
2021/08/26 09:25:28;;;;;;;7.20;2.10;;;;;;;16.28;100.00;100658.25;7398468;19;20391;-57
2021/08/26 09:27:57;;;;;;;12.97;1.60;;;;;;;16.27;100.00;100653.91;7391815;19;20514;-58
2021/08/26 09:30:27;;;;;;;6.80;2.20;;;;;;;16.23;100.00;100646.88;7397790;19;20456;-55
2021/08/26 09:33:01;;;;;;;7.23;1.53;;;;;;;15.93;100.00;100646.38;7370710;19;20400;-54
2021/08/26 09:35:34;;;;;;;6.20;2.40;;;;;;;16.09;100.00;100648.38;7396288;19;20468;-55
2021/08/26 09:38:05;;;;;;;5.00;1.50;;;;;;;16.29;100.00;100641.78;7390521;19;20739;-57
2021/08/26 09:40:46;;;;;;;4.13;1.20;;;;;;;16.47;100.00;100640.31;7398903;19;20396;-57
2021/08/26 09:43:15;;;;;;;7.07;1.60;;;;;;;16.52;100.00;100630.88;7381927;19;20430;-56
2021/08/26 09:45:50;;;;;;;6.90;1.50;;;;;;;16.29;100.00;100641.78;7398085;19;20443;-55
2021/08/26 09:48:20;;;;;;;4.47;1.20;;;;;;;16.10;100.00;100639.72;7389848;19;20714;-55
2021/08/26 09:50:53;;;;;;;8.90;1.70;;;;;;;15.95;100.00;100646.41;7398566;19;20386;-56
2021/08/26 09:53:25;;;;;;;6.17;1.40;;;;;;;15.88;100.00;100649.69;7392062;19;20434;-54
2021/08/26 09:56:03;;;;;;;7.07;2.97;;;;;;;15.84;100.00;100655.72;7395790;19;20455;-55
2021/08/26 09:58:34;;;;;;;3.50;1.30;;;;;;;15.68;100.00;100651.94;7391409;19;20987;-57
2021/08/26 10:01:16;;;;;;;6.17;2.00;;;;;;;16.04;100.00;100654.38;7398011;19;20380;-56
2021/08/26 10:03:46;;;;;;;3.87;1.47;;;;;;;16.52;100.00;100651.69;7382420;19;20432;-56
2021/08/26 10:06:19;;;;;;;6.77;2.07;;;;;;;16.76;100.00;100652.03;7395686;19;20459;-56
2021/08/26 10:08:50;;;;;;;3.80;1.30;;;;;;;16.45;100.00;100647.22;7397641;19;20688;-57
2021/08/26 10:11:21;;;;;;;9.80;1.93;;;;;;;16.31;100.00;100642.66;7397482;19;20407;-57
2021/08/26 10:13:52;;;;;;;4.40;1.30;;;;;;;16.07;100.00;100650.94;7396905;19;20420;-55
2021/08/26 10:16:22;;;;;;;5.13;1.00;;;;;;;15.97;100.00;100655.13;7397075;19;20413;-57
2021/08/26 10:18:54;;;;;;;3.60;1.00;;;;;;;16.23;100.00;100646.88;7397071;19;20415;-56
2021/08/26 10:21:26;;;;;;;5.57;1.13;;;;;;;16.35;100.00;100650.53;7390633;19;20396;-57
2021/08/26 10:23:55;;;;;;;11.43;1.40;;;;;;;16.51;100.00;100646.47;7395500;19;20416;-56
2021/08/26 10:26:25;;;;;;;6.50;1.23;;;;;;;16.64;100.00;100644.91;7390240;19;20451;-53
2021/08/26 10:28:55;;;;;;;6.60;1.33;;;;;;;17.00;100.00;100641.06;7396967;19;20459;-56
2021/08/26 10:31:26;;;;;;;12.00;1.70;;;;;;;16.84;100.00;100651.28;7390959;19;20475;-55
2021/08/26 10:34:12;;;;;;;4.07;1.13;;;;;;;16.53;100.00;100644.75;7397021;19;20387;-56
2021/08/26 10:36:50;;;;;;;4.60;1.43;;;;;;;16.42;100.00;100653.25;7394929;19;20408;-54
2021/08/26 10:39:28;;;;;;;4.77;1.10;;;;;;;16.45;100.00;100653.31;7404575;19;20453;-56
2021/08/26 10:41:58;;;;;;;4.50;1.20;;;;;;;16.36;100.00;100654.91;7394810;19;20417;-54
2021/08/26 10:45:00;;;;;;;11.63;1.00;;;;;;;16.37;100.00;100654.03;7404120;19;20875;-57
2021/08/26 10:48:01;;;;;;;4.30;1.07;;;;;;;16.29;100.00;100652.19;7399079;19;20933;-55
2021/08/26 10:50:33;;;;;;;6.00;1.70;;;;;;;16.40;100.00;100664.53;7404028;19;20698;-56
2021/08/26 10:53:07;;;;;;;4.87;1.37;;;;;;;16.42;100.00;100662.81;7396731;19;20887;-54
2021/08/26 10:55:40;;;;;;;6.90;1.93;;;;;;;16.16;100.00;100665.84;7401850;19;20459;-52
2021/08/26 10:58:37;;;;;;;7.63;3.77;;;;;;;16.18;100.00;100669.34;7395402;19;20419;-56
2021/08/26 11:01:08;;;;;;;2.27;1.07;;;;;;;16.71;100.00;100664.97;7403787;19;20850;-56
2021/08/26 11:03:55;;;;;;;3.33;0.90;;;;;;;16.92;100.00;100666.16;7397062;19;20419;-55
2021/08/26 11:06:42;;;;;;;6.40;2.07;;;;;;;16.98;100.00;100672.31;7395644;19;20386;-57
2021/08/26 11:09:37;;;;;;;4.40;1.47;;;;;;;16.81;100.00;100672.06;7403600;19;20456;-57
2021/08/26 11:12:28;;;;;;;3.70;0.97;;;;;;;16.71;100.00;100680.59;7396172;19;20403;-57
2021/08/26 11:15:00;;;;;;;11.23;1.10;;;;;;;16.59;100.00;100690.00;7400950;19;20830;-56
2021/08/26 11:17:35;;;;;;;5.43;1.30;;;;;;;16.46;100.00;100690.66;7396149;19;20427;-54
2021/08/26 11:20:33;;;;;;;4.97;0.90;;;;;;;16.26;100.00;100688.56;7402925;19;20647;-56
2021/08/26 11:23:15;;;;;;;2.73;0.80;;;;;;;16.14;100.00;100693.56;7395772;19;20423;-56
2021/08/26 11:25:47;;;;;;;4.53;0.90;;;;;;;16.01;100.00;100690.72;7402454;19;20456;-56
2021/08/26 11:28:33;;;;;;;4.30;1.00;;;;;;;15.87;100.00;100695.66;7395771;19;20975;-56
2021/08/26 11:31:21;;;;;;;4.47;1.57;;;;;;;15.91;100.00;100692.25;7402635;19;20380;-55
2021/08/26 11:33:53;;;;;;;4.67;1.20;;;;;;;15.85;100.00;100697.34;7400716;19;20435;-57